Station Historical Data
Daily Summary for May 27, 2017 Units:  English    Metric   Both
« Previous Day
Next Day »
Daily Weekly Monthly Yearly Custom
  High: Low: Average:
Temperature: 82.9 °F 64.7 °F 73.7 °F
Dew Point: 69.2 °F 60.4 °F 65 °F
Humidity: 88% 60% 75%
Wind Speed: 1.0mph 0.0mph 0mph
Wind Gust: 5.0mph - -
Wind- - WNW
Pressure: 30.04 in 29.93 in -
Precipitation: 0.00 in    
Historical Graphs
 
 
Tabular Data for May 27, 2017
Time Temperature Dew Point Pressure Wind Wind Speed Wind Gust Humidity Rainfall Rate (Hourly) Conditions
00:00 69.2 °F 62.0 °F 30.02 in Calm     78% 0.00 in SCT
00:10 68.9 °F 62.1 °F 30.02 in Calm     79% 0.00 in SCT
00:20 68.5 °F 62.1 °F 30.02 in Calm     80% 0.00 in SCT
00:30 68.2 °F 61.8 °F 30.02 in Calm     80% 0.00 in SCT
00:40 67.9 °F 61.5 °F 30.02 in Calm     80% 0.00 in SCT
00:50 67.5 °F 61.5 °F 30.02 in Calm     81% 0.00 in SCT
01:00 67.2 °F 61.5 °F 30.02 in Calm     82% 0.00 in SCT
01:10 67.0 °F 61.7 °F 30.02 in Calm     83% 0.00 in SCT
01:20 66.7 °F 61.4 °F 30.02 in Calm     83% 0.00 in SCT
01:30 66.5 °F 61.5 °F 30.02 in Calm     84% 0.00 in SCT
01:40 66.4 °F 61.4 °F 30.02 in Calm     84% 0.00 in SCT
01:50 66.2 °F 61.6 °F 30.02 in Calm     85% 0.00 in SCT
02:00 66.1 °F 61.5 °F 30.02 in Calm     85% 0.00 in SCT
02:10 66.0 °F 61.4 °F 30.02 in Calm     85% 0.00 in SCT
02:20 65.9 °F 61.6 °F 30.02 in Calm     86% 0.00 in SCT
02:30 65.8 °F 61.5 °F 30.01 in Calm     86% 0.00 in SCT
02:40 65.7 °F 61.4 °F 30.01 in Calm     86% 0.00 in SCT
02:50 64.7 °F 60.4 °F 30.01 in Calm     86% 0.00 in SCT
03:00 64.7 °F 60.4 °F 30.01 in Calm     86% 0.00 in SCT
03:10 64.7 °F 60.4 °F 30.01 in Calm     86% 0.00 in SCT
03:20 64.7 °F 60.4 °F 30.01 in Calm     86% 0.00 in SCT
03:30 64.7 °F 60.4 °F 30.01 in Calm     86% 0.00 in SCT
03:40 64.7 °F 60.4 °F 30.01 in Calm     86% 0.00 in SCT
03:50 64.7 °F 60.4 °F 30.01 in Calm     86% 0.00 in SCT
04:00 64.7 °F 60.4 °F 30.01 in Calm     86% 0.00 in SCT
04:10 64.7 °F 60.4 °F 30.01 in Calm     86% 0.00 in SCT
04:20 64.7 °F 60.4 °F 30.01 in Calm     86% 0.00 in SCT
04:30 64.7 °F 60.4 °F 30.01 in Calm     86% 0.00 in SCT
04:40 64.7 °F 60.4 °F 30.00 in Calm     86% 0.00 in SCT
04:50 64.7 °F 60.4 °F 30.00 in Calm     86% 0.00 in SCT
05:00 64.7 °F 60.4 °F 30.00 in Calm     86% 0.00 in SCT
05:10 64.7 °F 60.4 °F 30.00 in Calm     86% 0.00 in SCT
05:20 64.7 °F 60.4 °F 30.00 in Calm     86% 0.00 in SCT
05:30 64.7 °F 60.4 °F 30.00 in Calm     86% 0.00 in SCT
05:40 64.7 °F 60.4 °F 30.00 in Calm     86% 0.00 in SCT
05:50 64.7 °F 60.4 °F 30.00 in Calm     86% 0.00 in SCT
06:00 64.7 °F 60.4 °F 30.00 in Calm     86% 0.00 in SCT
06:10 64.7 °F 60.4 °F 30.00 in Calm     86% 0.00 in SCT
06:20 64.7 °F 60.4 °F 30.00 in Calm     86% 0.00 in SCT
06:30 64.7 °F 60.4 °F 30.01 in Calm     86% 0.00 in SCT
06:40 64.7 °F 60.4 °F 30.01 in Calm     86% 0.00 in SCT
06:50 64.7 °F 60.4 °F 30.01 in Calm     86% 0.00 in SCT
07:00 64.7 °F 60.4 °F 30.01 in Calm     86% 0.00 in SCT
07:10 64.7 °F 60.4 °F 30.01 in Calm     86% 0.00 in SCT
07:20 64.7 °F 60.4 °F 30.02 in Calm     86% 0.00 in SCT
07:30 64.9 °F 61.3 °F 30.02 in Calm     88% 0.00 in SCT
07:40 65.6 °F 61.6 °F 30.02 in Calm     87% 0.00 in SCT
07:50 66.0 °F 61.7 °F 30.02 in Calm     86% 0.00 in SCT
08:00 66.5 °F 62.2 °F 30.03 in Calm     86% 0.00 in SCT
08:10 67.2 °F 62.6 °F 30.02 in Calm     85% 0.00 in SCT
08:20 67.9 °F 62.9 °F 30.03 in Calm   1.0 mph 84% 0.00 in SCT
08:30 68.6 °F 63.2 °F 30.02 in Calm     83% 0.00 in SCT
08:40 69.2 °F 63.1 °F 30.03 in Calm     81% 0.00 in SCT
08:50 70.0 °F 63.9 °F 30.04 in Calm   1.0 mph 81% 0.00 in SCT
09:00 70.7 °F 63.9 °F 30.04 in Calm   1.0 mph 79% 0.00 in SCT
09:10 71.1 °F 62.8 °F 30.03 in Calm   1.0 mph 75% 0.00 in SCT
09:20 71.6 °F 63.6 °F 30.04 in Calm     76% 0.00 in SCT
09:30 72.3 °F 63.9 °F 30.04 in Calm   1.0 mph 75% 0.00 in SCT
09:40 73.1 °F 63.5 °F 30.04 in Calm     72% 0.00 in SCT
09:50 73.5 °F 63.9 °F 30.04 in Calm     72% 0.00 in SCT
10:00 74.0 °F 64.4 °F 30.04 in Calm   1.0 mph 72% 0.00 in SCT
10:10 75.3 °F 64.8 °F 30.04 in Calm     70% 0.00 in SCT
10:20 75.7 °F 66.1 °F 30.04 in Calm   1.0 mph 72% 0.00 in SCT
10:30 76.2 °F 65.3 °F 30.04 in Calm   1.0 mph 69% 0.00 in SCT
10:40 76.8 °F 65.8 °F 30.04 in Calm   1.0 mph 69% 0.00 in SCT
10:50 77.2 °F 65.4 °F 30.04 in Calm   1.0 mph 67% 0.00 in SCT
11:00 77.8 °F 66.8 °F 30.04 in Calm   1.0 mph 69% 0.00 in SCT
11:10 78.5 °F 66.2 °F 30.04 in Calm   5.0 mph 66% 0.00 in SCT
11:20 78.8 °F 65.6 °F 30.04 in Calm   3.0 mph 64% 0.00 in SCT
11:30 78.8 °F 66.0 °F 30.03 in Calm   3.0 mph 65% 0.00 in SCT
11:40 79.2 °F 66.4 °F 30.03 in Calm   5.0 mph 65% 0.00 in SCT
11:50 79.1 °F 65.5 °F 30.04 in Calm   5.0 mph 63% 0.00 in SCT
12:00 80.2 °F 66.9 °F 30.04 in Calm   3.0 mph 64% 0.00 in SCT
12:10 79.8 °F 66.5 °F 30.04 in Calm   3.0 mph 64% 0.00 in SCT
12:20 80.3 °F 66.6 °F 30.04 in Calm   3.0 mph 63% 0.00 in SCT
12:30 80.7 °F 66.9 °F 30.04 in Calm   3.0 mph 63% 0.00 in SCT
12:40 81.1 °F 66.8 °F 30.04 in Calm   2.0 mph 62% 0.00 in SCT
12:50 81.2 °F 66.9 °F 30.04 in West 1.0 mph 3.0 mph 62% 0.00 in SCT
13:00 82.1 °F 67.3 °F 30.04 in Calm   2.0 mph 61% 0.00 in SCT
13:10 82.9 °F 67.6 °F 30.03 in Calm   2.0 mph 60% 0.00 in SCT
13:20 82.6 °F 67.3 °F 30.02 in West 1.0 mph 2.0 mph 60% 0.00 in SCT
13:30 81.7 °F 67.4 °F 30.02 in Calm   3.0 mph 62% 0.00 in SCT
13:40 81.5 °F 67.7 °F 30.02 in Calm   1.0 mph 63% 0.00 in SCT
13:50 81.1 °F 66.4 °F 30.02 in WNW 1.0 mph 3.0 mph 61% 0.00 in SCT
14:00 80.6 °F 67.7 °F 30.02 in Calm   2.0 mph 65% 0.00 in SCT
14:10 80.9 °F 68.0 °F 30.01 in Calm   1.0 mph 65% 0.00 in SCT
14:20 81.4 °F 67.1 °F 30.01 in Calm   5.0 mph 62% 0.00 in SCT
14:30 81.4 °F 66.6 °F 30.01 in Calm   2.0 mph 61% 0.00 in SCT
14:40 81.7 °F 67.4 °F 30.00 in Calm   2.0 mph 62% 0.00 in SCT
14:50 81.0 °F 67.7 °F 29.99 in Calm   1.0 mph 64% 0.00 in SCT
15:00 81.2 °F 67.8 °F 30.00 in Calm   1.0 mph 64% 0.00 in SCT
15:10 81.0 °F 66.8 °F 29.99 in Calm   1.0 mph 62% 0.00 in SCT
15:20 81.3 °F 67.5 °F 29.98 in Calm   3.0 mph 63% 0.00 in SCT
15:30 81.2 °F 67.4 °F 29.98 in Calm   1.0 mph 63% 0.00 in SCT
15:40 81.1 °F 66.4 °F 29.98 in Calm   2.0 mph 61% 0.00 in SCT
15:50 82.0 °F 66.7 °F 29.97 in Calm   2.0 mph 60% 0.00 in SCT
16:00 81.7 °F 68.4 °F 29.97 in Calm   1.0 mph 64% 0.00 in SCT
16:10 81.7 °F 69.2 °F 29.97 in Calm     66% 0.00 in SCT
16:20 81.6 °F 68.7 °F 29.97 in Calm   5.0 mph 65% 0.00 in SCT
16:30 81.6 °F 68.7 °F 29.96 in Calm   1.0 mph 65% 0.00 in SCT
16:40 82.2 °F 67.4 °F 29.96 in Calm   2.0 mph 61% 0.00 in SCT
16:50 82.0 °F 68.6 °F 29.96 in Calm   2.0 mph 64% 0.00 in SCT
17:00 81.6 °F 68.7 °F 29.96 in Calm   2.0 mph 65% 0.00 in SCT
17:10 82.5 °F 69.1 °F 29.96 in Calm   1.0 mph 64% 0.00 in SCT
17:20 82.2 °F 68.8 °F 29.95 in Calm   3.0 mph 64% 0.00 in SCT
17:30 82.4 °F 68.1 °F 29.95 in NW 1.0 mph 3.0 mph 62% 0.00 in SCT
17:40 81.7 °F 67.9 °F 29.95 in Calm   2.0 mph 63% 0.00 in SCT
17:50 81.1 °F 68.7 °F 29.95 in Calm   1.0 mph 66% 0.00 in SCT
18:00 80.9 °F 68.5 °F 29.95 in North 1.0 mph 2.0 mph 66% 0.00 in SCT
18:10 80.9 °F 68.0 °F 29.95 in Calm   2.0 mph 65% 0.00 in SCT
18:20 80.9 °F 68.0 °F 29.94 in Calm   1.0 mph 65% 0.00 in SCT
18:30 80.6 °F 68.2 °F 29.94 in Calm   2.0 mph 66% 0.00 in SCT
18:40 80.3 °F 67.5 °F 29.94 in Calm   2.0 mph 65% 0.00 in SCT
18:50 80.2 °F 68.3 °F 29.95 in Calm   2.0 mph 67% 0.00 in SCT
19:00 79.9 °F 67.9 °F 29.95 in Calm   2.0 mph 67% 0.00 in SCT
19:10 79.5 °F 68.4 °F 29.95 in Calm   1.0 mph 69% 0.00 in SCT
19:20 79.2 °F 68.2 °F 29.95 in Calm   2.0 mph 69% 0.00 in SCT
19:30 79.1 °F 68.1 °F 29.95 in Calm   1.0 mph 69% 0.00 in SCT
19:40 79.0 °F 68.4 °F 29.95 in Calm     70% 0.00 in SCT
19:50 78.6 °F 68.4 °F 29.94 in Calm     71% 0.00 in SCT
20:00 78.1 °F 68.3 °F 29.94 in Calm     72% 0.00 in SCT
20:10 77.5 °F 68.2 °F 29.94 in Calm   1.0 mph 73% 0.00 in SCT
20:20 77.2 °F 68.3 °F 29.94 in Calm     74% 0.00 in SCT
20:30 77.0 °F 68.5 °F 29.95 in Calm     75% 0.00 in SCT
20:40 76.8 °F 68.3 °F 29.94 in Calm     75% 0.00 in SCT
20:50 76.4 °F 68.3 °F 29.94 in Calm     76% 0.00 in SCT
21:00 76.1 °F 68.4 °F 29.93 in Calm     77% 0.00 in SCT
21:10 75.5 °F 68.2 °F 29.93 in Calm     78% 0.00 in SCT
21:20 75.1 °F 68.2 °F 29.94 in Calm     79% 0.00 in SCT
21:30 74.9 °F 68.3 °F 29.93 in Calm     80% 0.00 in SCT
21:40 74.6 °F 68.0 °F 29.93 in Calm     80% 0.00 in SCT
21:50 74.5 °F 68.3 °F 29.93 in Calm     81% 0.00 in SCT
22:00 74.5 °F 68.6 °F 29.93 in Calm     82% 0.00 in SCT
22:10 74.4 °F 68.5 °F 29.93 in Calm     82% 0.00 in SCT
22:20 74.2 °F 68.3 °F 29.94 in Calm   1.0 mph 82% 0.00 in SCT
22:30 74.1 °F 68.6 °F 29.94 in Calm   1.0 mph 83% 0.00 in SCT
22:50 74.0 °F 68.9 °F 29.95 in Calm   1.0 mph 84% 0.00 in SCT
23:00 74.1 °F 69.0 °F 29.95 in Calm     84% 0.00 in SCT
23:10 74.2 °F 69.1 °F 29.96 in Calm     84% 0.00 in SCT
23:20 74.2 °F 69.1 °F 29.96 in Calm     84% 0.00 in SCT
23:30 74.2 °F 69.0 °F 29.96 in Calm     84% 0.00 in SCT
23:40 74.1 °F 68.9 °F 29.97 in Calm     84% 0.00 in SCT
23:50 74.0 °F 68.9 °F 29.97 in Calm     84% 0.00 in SCT
Piedmont Bend
Compliments of Weather Underground - 2 mb